sensor_id;sensor_type;location;lat;lon;timestamp;temperature;humidity
7048;DHT22;3565;53.254;10.352;2023-03-01T00:02:06;-2.50;1.00
7048;DHT22;3565;53.254;10.352;2023-03-01T00:04:35;-2.50;1.00
7048;DHT22;3565;53.254;10.352;2023-03-01T00:07:04;-2.50;1.00
7048;DHT22;3565;53.254;10.352;2023-03-01T00:12:12;-2.50;1.00
7048;DHT22;3565;53.254;10.352;2023-03-01T00:14:41;-2.50;1.00
7048;DHT22;3565;53.254;10.352;2023-03-01T00:17:11;-2.60;1.00
7048;DHT22;3565;53.254;10.352;2023-03-01T00:19:40;-2.60;1.00
7048;DHT22;3565;53.254;10.352;2023-03-01T00:22:09;-2.60;1.00
7048;DHT22;3565;53.254;10.352;2023-03-01T00:24:39;-2.70;1.00
7048;DHT22;3565;53.254;10.352;2023-03-01T00:27:08;-2.60;1.00
7048;DHT22;3565;53.254;10.352;2023-03-01T00:29:37;-2.60;1.00
7048;DHT22;3565;53.254;10.352;2023-03-01T00:32:07;-2.70;1.00
7048;DHT22;3565;53.254;10.352;2023-03-01T00:34:36;-2.60;1.00
7048;DHT22;3565;53.254;10.352;2023-03-01T00:37:05;-2.60;1.00
7048;DHT22;3565;53.254;10.352;2023-03-01T00:39:34;-2.70;1.00
7048;DHT22;3565;53.254;10.352;2023-03-01T00:42:04;-2.70;1.00
7048;DHT22;3565;53.254;10.352;2023-03-01T00:44:33;-2.70;1.00
7048;DHT22;3565;53.254;10.352;2023-03-01T00:47:03;-2.70;1.00
7048;DHT22;3565;53.254;10.352;2023-03-01T00:49:32;-2.70;1.00
7048;DHT22;3565;53.254;10.352;2023-03-01T00:52:04;-2.80;1.00
7048;DHT22;3565;53.254;10.352;2023-03-01T00:54:33;-2.80;1.00
7048;DHT22;3565;53.254;10.352;2023-03-01T00:57:03;-2.80;1.00
7048;DHT22;3565;53.254;10.352;2023-03-01T01:02:12;-2.80;1.00
7048;DHT22;3565;53.254;10.352;2023-03-01T01:04:41;-2.90;1.00
7048;DHT22;3565;53.254;10.352;2023-03-01T01:07:11;-3.00;1.00
7048;DHT22;3565;53.254;10.352;2023-03-01T01:09:40;-3.00;1.00
7048;DHT22;3565;53.254;10.352;2023-03-01T01:12:09;-3.10;1.00
7048;DHT22;3565;53.254;10.352;2023-03-01T01:17:16;-3.30;1.00
7048;DHT22;3565;53.254;10.352;2023-03-01T01:19:46;-3.30;95.80
7048;DHT22;3565;53.254;10.352;2023-03-01T01:22:15;-3.30;99.90
7048;DHT22;3565;53.254;10.352;2023-03-01T01:24:44;-3.30;99.90
7048;DHT22;3565;53.254;10.352;2023-03-01T01:27:14;-3.30;99.90
7048;DHT22;3565;53.254;10.352;2023-03-01T01:29:43;-3.40;99.90
7048;DHT22;3565;53.254;10.352;2023-03-01T01:32:12;-3.40;99.90
7048;DHT22;3565;53.254;10.352;2023-03-01T01:34:41;-3.30;99.90
7048;DHT22;3565;53.254;10.352;2023-03-01T01:37:10;-3.30;99.90
7048;DHT22;3565;53.254;10.352;2023-03-01T01:39:39;-3.30;1.00
7048;DHT22;3565;53.254;10.352;2023-03-01T01:42:13;-3.30;1.00
7048;DHT22;3565;53.254;10.352;2023-03-01T01:44:46;-3.30;99.90
7048;DHT22;3565;53.254;10.352;2023-03-01T01:47:17;-3.30;99.90
7048;DHT22;3565;53.254;10.352;2023-03-01T01:49:48;-3.30;99.90
7048;DHT22;3565;53.254;10.352;2023-03-01T01:52:20;-3.30;99.90
7048;DHT22;3565;53.254;10.352;2023-03-01T01:54:52;-3.30;1.00
7048;DHT22;3565;53.254;10.352;2023-03-01T02:00:06;-3.30;1.00
7048;DHT22;3565;53.254;10.352;2023-03-01T02:02:36;-3.20;99.90
7048;DHT22;3565;53.254;10.352;2023-03-01T02:05:08;-3.20;99.90
7048;DHT22;3565;53.254;10.352;2023-03-01T02:10:17;-3.40;99.90
7048;DHT22;3565;53.254;10.352;2023-03-01T02:12:46;-3.30;99.90
7048;DHT22;3565;53.254;10.352;2023-03-01T02:15:17;-3.40;99.90
7048;DHT22;3565;53.254;10.352;2023-03-01T02:20:16;-3.40;99.90
7048;DHT22;3565;53.254;10.352;2023-03-01T02:22:47;-3.50;99.90
7048;DHT22;3565;53.254;10.352;2023-03-01T02:25:28;-3.50;99.90
7048;DHT22;3565;53.254;10.352;2023-03-01T02:28:02;-3.50;99.90
7048;DHT22;3565;53.254;10.352;2023-03-01T02:30:31;-3.50;99.90
7048;DHT22;3565;53.254;10.352;2023-03-01T02:33:03;-3.50;99.90
7048;DHT22;3565;53.254;10.352;2023-03-01T02:35:35;-3.60;99.90
7048;DHT22;3565;53.254;10.352;2023-03-01T02:38:07;-3.50;1.00
7048;DHT22;3565;53.254;10.352;2023-03-01T02:40:37;-3.40;1.00
7048;DHT22;3565;53.254;10.352;2023-03-01T02:43:09;-3.50;1.00
7048;DHT22;3565;53.254;10.352;2023-03-01T02:45:43;-3.40;1.00
7048;DHT22;3565;53.254;10.352;2023-03-01T02:48:14;-3.50;99.90
7048;DHT22;3565;53.254;10.352;2023-03-01T02:50:53;-3.50;99.90
7048;DHT22;3565;53.254;10.352;2023-03-01T02:53:27;-3.50;99.90
7048;DHT22;3565;53.254;10.352;2023-03-01T02:55:56;-3.40;99.90
7048;DHT22;3565;53.254;10.352;2023-03-01T02:58:26;-3.40;99.90
7048;DHT22;3565;53.254;10.352;2023-03-01T03:00:58;-3.50;99.90
7048;DHT22;3565;53.254;10.352;2023-03-01T03:03:28;-3.50;99.90
7048;DHT22;3565;53.254;10.352;2023-03-01T03:05:57;-3.50;99.90
7048;DHT22;3565;53.254;10.352;2023-03-01T03:08:26;-3.40;99.90
7048;DHT22;3565;53.254;10.352;2023-03-01T03:10:56;-3.40;99.90
7048;DHT22;3565;53.254;10.352;2023-03-01T03:13:25;-3.30;99.90
7048;DHT22;3565;53.254;10.352;2023-03-01T03:15:56;-3.30;99.90
7048;DHT22;3565;53.254;10.352;2023-03-01T03:18:25;-3.40;99.90
7048;DHT22;3565;53.254;10.352;2023-03-01T03:20:56;-3.40;99.90
7048;DHT22;3565;53.254;10.352;2023-03-01T03:23:25;-3.40;99.90
7048;DHT22;3565;53.254;10.352;2023-03-01T03:25:54;-3.40;99.90
7048;DHT22;3565;53.254;10.352;2023-03-01T03:28:23;-3.40;99.90
7048;DHT22;3565;53.254;10.352;2023-03-01T03:30:53;-3.40;99.90
7048;DHT22;3565;53.254;10.352;2023-03-01T03:33:22;-3.50;99.90
7048;DHT22;3565;53.254;10.352;2023-03-01T03:35:51;-3.50;99.90
7048;DHT22;3565;53.254;10.352;2023-03-01T03:38:20;-3.40;99.90
7048;DHT22;3565;53.254;10.352;2023-03-01T03:40:51;-3.50;99.90
7048;DHT22;3565;53.254;10.352;2023-03-01T03:43:22;-3.60;65.00
7048;DHT22;3565;53.254;10.352;2023-03-01T03:48:30;-3.60;99.90
7048;DHT22;3565;53.254;10.352;2023-03-01T03:50:59;-3.60;99.90
7048;DHT22;3565;53.254;10.352;2023-03-01T03:56:09;-3.60;99.90
7048;DHT22;3565;53.254;10.352;2023-03-01T03:58:38;-3.70;99.90
7048;DHT22;3565;53.254;10.352;2023-03-01T04:01:08;-3.70;99.90
7048;DHT22;3565;53.254;10.352;2023-03-01T04:03:37;-3.60;99.90
7048;DHT22;3565;53.254;10.352;2023-03-01T04:08:46;-3.60;99.90
7048;DHT22;3565;53.254;10.352;2023-03-01T04:11:16;-3.60;99.90
7048;DHT22;3565;53.254;10.352;2023-03-01T04:13:56;-3.60;99.90
7048;DHT22;3565;53.254;10.352;2023-03-01T04:16:26;-3.60;99.90
7048;DHT22;3565;53.254;10.352;2023-03-01T04:18:55;-3.70;99.90
7048;DHT22;3565;53.254;10.352;2023-03-01T04:21:26;-3.60;1.00
7048;DHT22;3565;53.254;10.352;2023-03-01T04:23:55;-3.60;1.00
7048;DHT22;3565;53.254;10.352;2023-03-01T04:26:25;-3.60;20.00
7048;DHT22;3565;53.254;10.352;2023-03-01T04:28:55;-3.60;99.90
7048;DHT22;3565;53.254;10.352;2023-03-01T04:31:24;-3.60;1.00
7048;DHT22;3565;53.254;10.352;2023-03-01T04:33:55;-3.60;1.00
7048;DHT22;3565;53.254;10.352;2023-03-01T04:36:26;-3.60;1.00
7048;DHT22;3565;53.254;10.352;2023-03-01T04:38:56;-3.70;1.00
7048;DHT22;3565;53.254;10.352;2023-03-01T04:41:26;-3.60;1.00
7048;DHT22;3565;53.254;10.352;2023-03-01T04:43:55;-3.70;1.00
7048;DHT22;3565;53.254;10.352;2023-03-01T04:46:25;-3.90;99.90
7048;DHT22;3565;53.254;10.352;2023-03-01T04:48:54;-3.90;99.90
7048;DHT22;3565;53.254;10.352;2023-03-01T04:51:23;-3.90;1.00
7048;DHT22;3565;53.254;10.352;2023-03-01T04:53:52;-3.80;1.00
7048;DHT22;3565;53.254;10.352;2023-03-01T04:56:21;-3.90;99.90
7048;DHT22;3565;53.254;10.352;2023-03-01T04:58:53;-4.00;1.00
7048;DHT22;3565;53.254;10.352;2023-03-01T05:01:22;-4.00;1.00
7048;DHT22;3565;53.254;10.352;2023-03-01T05:03:52;-4.10;1.00
7048;DHT22;3565;53.254;10.352;2023-03-01T05:06:22;-4.20;1.00
7048;DHT22;3565;53.254;10.352;2023-03-01T05:08:51;-4.20;81.70
7048;DHT22;3565;53.254;10.352;2023-03-01T05:11:20;-4.10;1.00
7048;DHT22;3565;53.254;10.352;2023-03-01T05:13:49;-4.10;89.10
7048;DHT22;3565;53.254;10.352;2023-03-01T05:16:20;-4.10;1.00
7048;DHT22;3565;53.254;10.352;2023-03-01T05:18:49;-4.10;1.00
7048;DHT22;3565;53.254;10.352;2023-03-01T05:21:18;-4.00;1.00
7048;DHT22;3565;53.254;10.352;2023-03-01T05:23:47;-4.10;99.90
7048;DHT22;3565;53.254;10.352;2023-03-01T05:26:18;-4.00;99.90
7048;DHT22;3565;53.254;10.352;2023-03-01T05:28:49;-4.00;1.00
7048;DHT22;3565;53.254;10.352;2023-03-01T05:31:19;-3.90;99.90
7048;DHT22;3565;53.254;10.352;2023-03-01T05:33:48;-3.90;99.90
7048;DHT22;3565;53.254;10.352;2023-03-01T05:36:17;-3.80;99.90
7048;DHT22;3565;53.254;10.352;2023-03-01T05:38:47;-3.80;1.00
7048;DHT22;3565;53.254;10.352;2023-03-01T05:41:16;-3.80;35.70
7048;DHT22;3565;53.254;10.352;2023-03-01T05:43:46;-3.70;99.90
7048;DHT22;3565;53.254;10.352;2023-03-01T05:46:15;-3.70;99.90
7048;DHT22;3565;53.254;10.352;2023-03-01T05:48:44;-3.70;99.90
7048;DHT22;3565;53.254;10.352;2023-03-01T05:51:14;-3.60;99.90
7048;DHT22;3565;53.254;10.352;2023-03-01T05:53:43;-3.60;1.00
7048;DHT22;3565;53.254;10.352;2023-03-01T05:56:13;-3.60;1.00
7048;DHT22;3565;53.254;10.352;2023-03-01T05:58:42;-3.60;1.00
7048;DHT22;3565;53.254;10.352;2023-03-01T06:01:12;-3.60;99.90
7048;DHT22;3565;53.254;10.352;2023-03-01T06:03:42;-3.60;99.90
7048;DHT22;3565;53.254;10.352;2023-03-01T06:06:11;-3.50;1.00
7048;DHT22;3565;53.254;10.352;2023-03-01T06:08:40;-3.50;99.90
7048;DHT22;3565;53.254;10.352;2023-03-01T06:11:09;-3.40;1.00
7048;DHT22;3565;53.254;10.352;2023-03-01T06:13:40;-3.40;1.00
7048;DHT22;3565;53.254;10.352;2023-03-01T06:16:11;-3.40;99.90
7048;DHT22;3565;53.254;10.352;2023-03-01T06:18:41;-3.50;1.00
7048;DHT22;3565;53.254;10.352;2023-03-01T06:21:10;-3.50;1.00
7048;DHT22;3565;53.254;10.352;2023-03-01T06:23:39;-3.40;99.90
7048;DHT22;3565;53.254;10.352;2023-03-01T06:26:09;-3.40;99.90
7048;DHT22;3565;53.254;10.352;2023-03-01T06:28:38;-3.30;99.90
7048;DHT22;3565;53.254;10.352;2023-03-01T06:31:09;-3.30;1.00
7048;DHT22;3565;53.254;10.352;2023-03-01T06:33:38;-3.20;1.00
7048;DHT22;3565;53.254;10.352;2023-03-01T06:36:09;-3.20;99.90
7048;DHT22;3565;53.254;10.352;2023-03-01T06:38:38;-3.20;99.90
7048;DHT22;3565;53.254;10.352;2023-03-01T06:41:08;-3.20;1.00
7048;DHT22;3565;53.254;10.352;2023-03-01T06:43:38;-3.20;1.00
7048;DHT22;3565;53.254;10.352;2023-03-01T06:46:08;-3.10;99.90
7048;DHT22;3565;53.254;10.352;2023-03-01T06:48:37;-3.00;99.90
7048;DHT22;3565;53.254;10.352;2023-03-01T06:51:06;-2.80;99.90
7048;DHT22;3565;53.254;10.352;2023-03-01T06:53:36;-2.80;99.90
7048;DHT22;3565;53.254;10.352;2023-03-01T06:56:06;-2.70;59.20
7048;DHT22;3565;53.254;10.352;2023-03-01T06:58:35;-2.50;1.00
7048;DHT22;3565;53.254;10.352;2023-03-01T07:01:07;-2.40;1.00
7048;DHT22;3565;53.254;10.352;2023-03-01T07:03:37;-2.30;1.00
7048;DHT22;3565;53.254;10.352;2023-03-01T07:06:07;-2.30;1.00
7048;DHT22;3565;53.254;10.352;2023-03-01T07:08:37;-2.30;99.90
7048;DHT22;3565;53.254;10.352;2023-03-01T07:11:06;-2.30;99.90
7048;DHT22;3565;53.254;10.352;2023-03-01T07:13:35;-2.10;99.90
7048;DHT22;3565;53.254;10.352;2023-03-01T07:16:07;-2.00;99.90
7048;DHT22;3565;53.254;10.352;2023-03-01T07:18:37;-1.80;99.90
7048;DHT22;3565;53.254;10.352;2023-03-01T07:21:08;-1.80;1.00
7048;DHT22;3565;53.254;10.352;2023-03-01T07:23:37;-1.80;99.90
7048;DHT22;3565;53.254;10.352;2023-03-01T07:26:07;-1.80;99.90
7048;DHT22;3565;53.254;10.352;2023-03-01T07:28:36;-1.70;99.90
7048;DHT22;3565;53.254;10.352;2023-03-01T07:31:07;-1.50;99.90
7048;DHT22;3565;53.254;10.352;2023-03-01T07:33:37;-1.50;99.90
7048;DHT22;3565;53.254;10.352;2023-03-01T07:36:08;-1.60;99.90
7048;DHT22;3565;53.254;10.352;2023-03-01T07:38:38;-1.20;99.90
7048;DHT22;3565;53.254;10.352;2023-03-01T07:41:07;-1.10;8.30
7048;DHT22;3565;53.254;10.352;2023-03-01T07:46:14;-0.90;99.90
7048;DHT22;3565;53.254;10.352;2023-03-01T07:48:43;-0.80;1.00
7048;DHT22;3565;53.254;10.352;2023-03-01T07:51:13;-0.70;1.00
7048;DHT22;3565;53.254;10.352;2023-03-01T07:53:44;-0.60;1.00
7048;DHT22;3565;53.254;10.352;2023-03-01T07:56:15;-0.50;1.00
7048;DHT22;3565;53.254;10.352;2023-03-01T08:01:24;-0.20;99.90
7048;DHT22;3565;53.254;10.352;2023-03-01T08:03:53;0.00;99.90
7048;DHT22;3565;53.254;10.352;2023-03-01T08:06:23;0.20;99.90
7048;DHT22;3565;53.254;10.352;2023-03-01T08:08:52;0.30;99.90
7048;DHT22;3565;53.254;10.352;2023-03-01T08:11:23;0.60;99.90
7048;DHT22;3565;53.254;10.352;2023-03-01T08:13:52;0.70;99.90
7048;DHT22;3565;53.254;10.352;2023-03-01T08:16:21;0.90;99.90
7048;DHT22;3565;53.254;10.352;2023-03-01T08:18:50;1.30;93.30
7048;DHT22;3565;53.254;10.352;2023-03-01T08:21:19;1.50;45.40
7048;DHT22;3565;53.254;10.352;2023-03-01T08:23:48;1.40;1.00
7048;DHT22;3565;53.254;10.352;2023-03-01T08:26:19;1.80;38.20
7048;DHT22;3565;53.254;10.352;2023-03-01T08:28:50;2.20;17.60
7048;DHT22;3565;53.254;10.352;2023-03-01T08:31:21;2.10;1.00
7048;DHT22;3565;53.254;10.352;2023-03-01T08:33:52;2.30;1.00
7048;DHT22;3565;53.254;10.352;2023-03-01T08:36:23;2.30;1.00
7048;DHT22;3565;53.254;10.352;2023-03-01T08:38:54;2.50;1.00
7048;DHT22;3565;53.254;10.352;2023-03-01T08:41:23;2.50;1.00
7048;DHT22;3565;53.254;10.352;2023-03-01T08:43:52;2.60;1.00
7048;DHT22;3565;53.254;10.352;2023-03-01T08:46:23;2.60;1.00
7048;DHT22;3565;53.254;10.352;2023-03-01T08:48:52;2.90;1.00
7048;DHT22;3565;53.254;10.352;2023-03-01T08:51:22;3.00;1.00
7048;DHT22;3565;53.254;10.352;2023-03-01T08:53:52;2.90;1.00
7048;DHT22;3565;53.254;10.352;2023-03-01T08:56:21;2.70;1.00
7048;DHT22;3565;53.254;10.352;2023-03-01T08:58:52;2.70;1.00
7048;DHT22;3565;53.254;10.352;2023-03-01T09:01:21;3.00;1.00
7048;DHT22;3565;53.254;10.352;2023-03-01T09:03:50;3.50;1.00
7048;DHT22;3565;53.254;10.352;2023-03-01T09:06:19;3.50;1.00
7048;DHT22;3565;53.254;10.352;2023-03-01T09:08:50;3.70;1.00
7048;DHT22;3565;53.254;10.352;2023-03-01T09:11:21;4.00;1.00
7048;DHT22;3565;53.254;10.352;2023-03-01T09:13:51;4.80;1.00
7048;DHT22;3565;53.254;10.352;2023-03-01T09:16:21;4.80;1.00
7048;DHT22;3565;53.254;10.352;2023-03-01T09:18:51;4.70;1.00
7048;DHT22;3565;53.254;10.352;2023-03-01T09:21:21;5.00;1.00
7048;DHT22;3565;53.254;10.352;2023-03-01T09:23:51;5.30;1.00
7048;DHT22;3565;53.254;10.352;2023-03-01T09:26:21;5.70;1.00
7048;DHT22;3565;53.254;10.352;2023-03-01T09:28:53;5.90;1.00
7048;DHT22;3565;53.254;10.352;2023-03-01T09:31:23;6.20;1.00
7048;DHT22;3565;53.254;10.352;2023-03-01T09:33:53;6.70;1.00
7048;DHT22;3565;53.254;10.352;2023-03-01T09:36:24;7.80;1.00
7048;DHT22;3565;53.254;10.352;2023-03-01T09:41:47;8.60;1.00
7048;DHT22;3565;53.254;10.352;2023-03-01T09:47:17;9.10;1.00
7048;DHT22;3565;53.254;10.352;2023-03-01T09:49:42;8.70;1.00
7048;DHT22;3565;53.254;10.352;2023-03-01T09:54:57;8.70;1.00
7048;DHT22;3565;53.254;10.352;2023-03-01T09:57:33;9.00;1.00
7048;DHT22;3565;53.254;10.352;2023-03-01T10:00:18;9.20;1.00
7048;DHT22;3565;53.254;10.352;2023-03-01T10:02:52;9.00;1.00
7048;DHT22;3565;53.254;10.352;2023-03-01T10:05:48;8.50;1.00
7048;DHT22;3565;53.254;10.352;2023-03-01T10:08:28;7.90;1.00
7048;DHT22;3565;53.254;10.352;2023-03-01T10:10:59;7.60;1.00
7048;DHT22;3565;53.254;10.352;2023-03-01T10:13:33;7.80;1.00
7048;DHT22;3565;53.254;10.352;2023-03-01T10:16:09;8.20;1.00
7048;DHT22;3565;53.254;10.352;2023-03-01T10:18:38;7.90;1.00
7048;DHT22;3565;53.254;10.352;2023-03-01T10:21:13;7.80;1.00
7048;DHT22;3565;53.254;10.352;2023-03-01T10:23:43;7.90;1.00
7048;DHT22;3565;53.254;10.352;2023-03-01T10:26:26;7.90;1.00
7048;DHT22;3565;53.254;10.352;2023-03-01T10:31:43;8.40;1.00
7048;DHT22;3565;53.254;10.352;2023-03-01T10:34:14;8.20;1.00
7048;DHT22;3565;53.254;10.352;2023-03-01T10:36:45;8.60;1.00
7048;DHT22;3565;53.254;10.352;2023-03-01T10:39:18;9.00;1.00
7048;DHT22;3565;53.254;10.352;2023-03-01T10:41:56;9.80;1.00
7048;DHT22;3565;53.254;10.352;2023-03-01T10:44:46;10.20;1.00
7048;DHT22;3565;53.254;10.352;2023-03-01T10:47:19;10.80;1.00
7048;DHT22;3565;53.254;10.352;2023-03-01T10:50:00;11.30;1.00
7048;DHT22;3565;53.254;10.352;2023-03-01T10:52:33;11.40;1.00
7048;DHT22;3565;53.254;10.352;2023-03-01T10:55:19;11.40;1.00
7048;DHT22;3565;53.254;10.352;2023-03-01T10:57:37;10.60;1.00
7048;DHT22;3565;53.254;10.352;2023-03-01T11:00:26;10.90;1.00
7048;DHT22;3565;53.254;10.352;2023-03-01T11:03:11;10.70;1.00
7048;DHT22;3565;53.254;10.352;2023-03-01T11:05:59;10.80;1.00
7048;DHT22;3565;53.254;10.352;2023-03-01T11:08:40;10.90;1.00
7048;DHT22;3565;53.254;10.352;2023-03-01T11:11:25;11.60;1.00
7048;DHT22;3565;53.254;10.352;2023-03-01T11:14:00;12.30;1.00
7048;DHT22;3565;53.254;10.352;2023-03-01T11:16:33;12.30;1.00
7048;DHT22;3565;53.254;10.352;2023-03-01T11:19:16;12.50;1.00
7048;DHT22;3565;53.254;10.352;2023-03-01T11:21:53;12.30;1.00
7048;DHT22;3565;53.254;10.352;2023-03-01T11:24:29;12.40;1.00
7048;DHT22;3565;53.254;10.352;2023-03-01T11:27:00;12.60;1.00
7048;DHT22;3565;53.254;10.352;2023-03-01T11:29:34;12.30;1.00
7048;DHT22;3565;53.254;10.352;2023-03-01T11:34:47;11.30;1.00
7048;DHT22;3565;53.254;10.352;2023-03-01T11:37:28;11.30;1.00
7048;DHT22;3565;53.254;10.352;2023-03-01T11:40:05;10.80;1.00
7048;DHT22;3565;53.254;10.352;2023-03-01T11:42:42;10.50;1.00
7048;DHT22;3565;53.254;10.352;2023-03-01T11:45:13;10.20;1.00
7048;DHT22;3565;53.254;10.352;2023-03-01T11:47:51;11.00;1.00
7048;DHT22;3565;53.254;10.352;2023-03-01T11:50:26;11.00;1.00
7048;DHT22;3565;53.254;10.352;2023-03-01T11:53:04;10.60;1.00
7048;DHT22;3565;53.254;10.352;2023-03-01T11:55:49;10.70;1.00
7048;DHT22;3565;53.254;10.352;2023-03-01T11:58:29;10.80;1.00
7048;DHT22;3565;53.254;10.352;2023-03-01T12:06:56;10.90;1.00
7048;DHT22;3565;53.254;10.352;2023-03-01T12:09:45;11.40;1.00
7048;DHT22;3565;53.254;10.352;2023-03-01T12:12:31;10.80;1.00
7048;DHT22;3565;53.254;10.352;2023-03-01T12:21:23;10.70;1.00
7048;DHT22;3565;53.254;10.352;2023-03-01T12:27:00;11.20;1.00
7048;DHT22;3565;53.254;10.352;2023-03-01T12:29:31;11.90;1.00
7048;DHT22;3565;53.254;10.352;2023-03-01T12:32:17;11.70;1.00
7048;DHT22;3565;53.254;10.352;2023-03-01T12:40:55;10.90;1.00
7048;DHT22;3565;53.254;10.352;2023-03-01T12:46:37;11.60;1.00
7048;DHT22;3565;53.254;10.352;2023-03-01T12:49:09;12.20;1.00
7048;DHT22;3565;53.254;10.352;2023-03-01T12:51:41;13.20;1.00
7048;DHT22;3565;53.254;10.352;2023-03-01T12:56:57;12.40;1.00
7048;DHT22;3565;53.254;10.352;2023-03-01T12:59:30;12.30;1.00
7048;DHT22;3565;53.254;10.352;2023-03-01T13:02:03;12.50;1.00
7048;DHT22;3565;53.254;10.352;2023-03-01T13:07:34;12.80;1.00
7048;DHT22;3565;53.254;10.352;2023-03-01T13:10:24;13.50;1.00
7048;DHT22;3565;53.254;10.352;2023-03-01T13:13:03;13.40;1.00
7048;DHT22;3565;53.254;10.352;2023-03-01T13:15:35;13.70;1.00
7048;DHT22;3565;53.254;10.352;2023-03-01T13:18:28;13.40;1.00
7048;DHT22;3565;53.254;10.352;2023-03-01T13:20:48;13.70;1.00
7048;DHT22;3565;53.254;10.352;2023-03-01T13:23:27;13.60;1.00
7048;DHT22;3565;53.254;10.352;2023-03-01T13:29:00;14.10;1.00
7048;DHT22;3565;53.254;10.352;2023-03-01T13:32:04;13.00;1.00
7048;DHT22;3565;53.254;10.352;2023-03-01T13:34:46;12.30;1.00
7048;DHT22;3565;53.254;10.352;2023-03-01T13:37:30;12.90;1.00
7048;DHT22;3565;53.254;10.352;2023-03-01T13:40:03;12.80;1.00
7048;DHT22;3565;53.254;10.352;2023-03-01T13:42:36;13.50;1.00
7048;DHT22;3565;53.254;10.352;2023-03-01T13:48:09;12.70;1.00
7048;DHT22;3565;53.254;10.352;2023-03-01T13:50:38;12.30;1.00
7048;DHT22;3565;53.254;10.352;2023-03-01T13:53:10;12.60;1.00
7048;DHT22;3565;53.254;10.352;2023-03-01T13:55:44;12.20;1.00
7048;DHT22;3565;53.254;10.352;2023-03-01T13:58:22;12.10;1.00
7048;DHT22;3565;53.254;10.352;2023-03-01T14:01:01;12.00;1.00
7048;DHT22;3565;53.254;10.352;2023-03-01T14:03:33;12.50;1.00
7048;DHT22;3565;53.254;10.352;2023-03-01T14:06:05;12.00;1.00
7048;DHT22;3565;53.254;10.352;2023-03-01T14:08:38;12.30;1.00
7048;DHT22;3565;53.254;10.352;2023-03-01T14:11:54;12.90;1.00
7048;DHT22;3565;53.254;10.352;2023-03-01T14:14:44;13.70;1.00
7048;DHT22;3565;53.254;10.352;2023-03-01T14:17:37;13.80;1.00
7048;DHT22;3565;53.254;10.352;2023-03-01T14:20:12;13.20;1.00
7048;DHT22;3565;53.254;10.352;2023-03-01T14:22:43;12.40;1.00
7048;DHT22;3565;53.254;10.352;2023-03-01T14:25:22;11.90;1.00
7048;DHT22;3565;53.254;10.352;2023-03-01T14:28:00;11.80;1.00
7048;DHT22;3565;53.254;10.352;2023-03-01T14:30:34;12.00;1.00
7048;DHT22;3565;53.254;10.352;2023-03-01T14:33:17;11.80;1.00
7048;DHT22;3565;53.254;10.352;2023-03-01T14:35:55;12.00;1.00
7048;DHT22;3565;53.254;10.352;2023-03-01T14:38:30;12.10;1.00
7048;DHT22;3565;53.254;10.352;2023-03-01T14:41:02;12.10;1.00
7048;DHT22;3565;53.254;10.352;2023-03-01T14:43:33;11.90;1.00
7048;DHT22;3565;53.254;10.352;2023-03-01T14:46:02;11.80;1.00
7048;DHT22;3565;53.254;10.352;2023-03-01T14:48:32;11.90;1.00
7048;DHT22;3565;53.254;10.352;2023-03-01T14:51:01;11.50;1.00
7048;DHT22;3565;53.254;10.352;2023-03-01T14:53:31;10.90;1.00
7048;DHT22;3565;53.254;10.352;2023-03-01T14:56:02;10.90;1.00
7048;DHT22;3565;53.254;10.352;2023-03-01T14:58:33;11.40;1.00
7048;DHT22;3565;53.254;10.352;2023-03-01T15:01:04;12.10;1.00
7048;DHT22;3565;53.254;10.352;2023-03-01T15:03:35;11.90;1.00
7048;DHT22;3565;53.254;10.352;2023-03-01T15:06:06;11.00;1.00
7048;DHT22;3565;53.254;10.352;2023-03-01T15:08:36;10.70;1.00
7048;DHT22;3565;53.254;10.352;2023-03-01T15:11:16;11.10;1.00
7048;DHT22;3565;53.254;10.352;2023-03-01T15:16:29;10.70;1.00
7048;DHT22;3565;53.254;10.352;2023-03-01T15:19:01;10.20;1.00
7048;DHT22;3565;53.254;10.352;2023-03-01T15:21:32;10.80;1.00
7048;DHT22;3565;53.254;10.352;2023-03-01T15:24:05;11.40;1.00
7048;DHT22;3565;53.254;10.352;2023-03-01T15:26:40;11.50;1.00
7048;DHT22;3565;53.254;10.352;2023-03-01T15:29:15;11.80;1.00
7048;DHT22;3565;53.254;10.352;2023-03-01T15:31:54;12.20;1.00
7048;DHT22;3565;53.254;10.352;2023-03-01T15:34:25;12.40;1.00
7048;DHT22;3565;53.254;10.352;2023-03-01T15:36:54;12.40;1.00
7048;DHT22;3565;53.254;10.352;2023-03-01T15:39:33;12.40;1.00
7048;DHT22;3565;53.254;10.352;2023-03-01T15:42:06;12.40;1.00
7048;DHT22;3565;53.254;10.352;2023-03-01T15:44:37;12.40;1.00
7048;DHT22;3565;53.254;10.352;2023-03-01T15:47:21;12.50;1.00
7048;DHT22;3565;53.254;10.352;2023-03-01T15:49:40;12.80;1.00
7048;DHT22;3565;53.254;10.352;2023-03-01T15:52:13;12.80;1.00
7048;DHT22;3565;53.254;10.352;2023-03-01T15:54:43;12.60;1.00
7048;DHT22;3565;53.254;10.352;2023-03-01T15:57:14;12.60;1.00
7048;DHT22;3565;53.254;10.352;2023-03-01T15:59:43;12.40;1.00
7048;DHT22;3565;53.254;10.352;2023-03-01T16:02:12;12.50;1.00
7048;DHT22;3565;53.254;10.352;2023-03-01T16:04:41;12.40;1.00
7048;DHT22;3565;53.254;10.352;2023-03-01T16:07:11;12.30;1.00
7048;DHT22;3565;53.254;10.352;2023-03-01T16:09:41;12.10;1.00
7048;DHT22;3565;53.254;10.352;2023-03-01T16:12:14;11.90;1.00
7048;DHT22;3565;53.254;10.352;2023-03-01T16:14:43;11.60;1.00
7048;DHT22;3565;53.254;10.352;2023-03-01T16:17:12;11.50;1.00
7048;DHT22;3565;53.254;10.352;2023-03-01T16:19:43;11.10;1.00
7048;DHT22;3565;53.254;10.352;2023-03-01T16:22:12;10.70;1.00
7048;DHT22;3565;53.254;10.352;2023-03-01T16:24:41;10.30;1.00
7048;DHT22;3565;53.254;10.352;2023-03-01T16:27:10;10.00;1.00
7048;DHT22;3565;53.254;10.352;2023-03-01T16:32:16;9.30;1.00
7048;DHT22;3565;53.254;10.352;2023-03-01T16:34:45;9.00;1.00
7048;DHT22;3565;53.254;10.352;2023-03-01T16:37:16;8.70;1.00
7048;DHT22;3565;53.254;10.352;2023-03-01T16:39:46;8.60;1.00
7048;DHT22;3565;53.254;10.352;2023-03-01T16:42:18;8.20;1.00
7048;DHT22;3565;53.254;10.352;2023-03-01T16:44:47;8.00;1.00
7048;DHT22;3565;53.254;10.352;2023-03-01T16:47:16;7.80;1.00
7048;DHT22;3565;53.254;10.352;2023-03-01T16:49:45;7.60;1.00
7048;DHT22;3565;53.254;10.352;2023-03-01T16:52:14;7.50;1.00
7048;DHT22;3565;53.254;10.352;2023-03-01T16:54:43;7.30;1.00
7048;DHT22;3565;53.254;10.352;2023-03-01T16:57:13;7.20;1.00
7048;DHT22;3565;53.254;10.352;2023-03-01T16:59:42;7.00;1.00
7048;DHT22;3565;53.254;10.352;2023-03-01T17:02:12;6.80;1.00
7048;DHT22;3565;53.254;10.352;2023-03-01T17:04:42;6.60;1.00
7048;DHT22;3565;53.254;10.352;2023-03-01T17:07:11;6.40;1.00
7048;DHT22;3565;53.254;10.352;2023-03-01T17:09:41;6.20;1.00
7048;DHT22;3565;53.254;10.352;2023-03-01T17:12:12;6.10;1.00
7048;DHT22;3565;53.254;10.352;2023-03-01T17:14:41;5.90;1.00
7048;DHT22;3565;53.254;10.352;2023-03-01T17:17:12;5.80;1.00
7048;DHT22;3565;53.254;10.352;2023-03-01T17:19:41;5.70;1.00
7048;DHT22;3565;53.254;10.352;2023-03-01T17:22:12;5.60;1.00
7048;DHT22;3565;53.254;10.352;2023-03-01T17:27:17;5.50;1.00
7048;DHT22;3565;53.254;10.352;2023-03-01T17:29:47;5.40;1.00
7048;DHT22;3565;53.254;10.352;2023-03-01T17:32:17;5.40;1.00
7048;DHT22;3565;53.254;10.352;2023-03-01T17:34:46;5.30;1.00
7048;DHT22;3565;53.254;10.352;2023-03-01T17:37:16;5.20;1.00
7048;DHT22;3565;53.254;10.352;2023-03-01T17:42:26;5.10;1.00
7048;DHT22;3565;53.254;10.352;2023-03-01T17:44:56;5.10;1.00
7048;DHT22;3565;53.254;10.352;2023-03-01T17:47:25;5.10;1.00
7048;DHT22;3565;53.254;10.352;2023-03-01T17:52:33;5.10;1.00
7048;DHT22;3565;53.254;10.352;2023-03-01T17:55:02;5.10;1.00
7048;DHT22;3565;53.254;10.352;2023-03-01T17:57:32;5.00;1.00
7048;DHT22;3565;53.254;10.352;2023-03-01T18:02:40;4.90;1.00
7048;DHT22;3565;53.254;10.352;2023-03-01T18:05:11;4.80;1.00